Time;durP1;ratioP1;P1;durP2;ratioP2;P2;SDS_P1;SDS_P2;PMS_P1;PMS_P2;Temp;Humidity;BMP_temperature;BMP_pressure;BME280_temperature;BME280_humidity;BME280_pressure;Samples;Min_cycle;Max_cycle;Signal;HPM_P1;HPM_P2
2022/05/11 00:09:00;;;;;;;6.70;3.17;;;;;;;11.49;72.82;100814.22;18626578;31;20139;-64
2022/05/11 00:19:03;;;;;;;6.82;3.12;;;;;;;11.77;72.56;100811.59;18626349;31;20411;-64
2022/05/11 00:29:08;;;;;;;6.60;3.08;;;;;;;11.48;73.13;100803.75;18625821;31;20083;-64
2022/05/11 00:39:11;;;;;;;10.18;4.10;;;;;;;11.66;72.42;100798.50;18625496;31;20435;-64
2022/05/11 00:49:38;;;;;;;7.85;3.55;;;;;;;11.21;73.77;100808.94;18624941;31;20088;-64
2022/05/11 00:59:44;;;;;;;6.45;3.22;;;;;;;11.63;71.61;100805.47;18628082;31;20096;-64
2022/05/11 01:09:49;;;;;;;8.32;3.90;;;;;;;10.58;75.05;100809.63;18632309;31;20136;-64
2022/05/11 01:19:53;;;;;;;5.00;3.05;;;;;;;10.90;74.59;100805.38;18631784;31;20100;-64
2022/05/11 01:30:00;;;;;;;7.87;3.97;;;;;;;11.22;73.96;100800.22;18632422;31;20107;-64
2022/05/11 01:40:04;;;;;;;7.75;3.85;;;;;;;10.85;73.43;100794.03;18631200;31;20076;-64
2022/05/11 01:50:09;;;;;;;8.18;3.20;;;;;;;10.86;74.73;100799.28;18631840;31;20338;-64
2022/05/11 02:00:13;;;;;;;5.12;3.00;;;;;;;10.76;73.88;100805.34;18630369;31;20096;-64
2022/05/11 02:10:18;;;;;;;6.75;3.30;;;;;;;10.88;73.42;100804.50;18629696;31;20153;-64
2022/05/11 02:20:22;;;;;;;5.45;2.90;;;;;;;10.30;75.44;100812.06;18629714;31;20101;-64
2022/05/11 02:30:30;;;;;;;6.60;3.12;;;;;;;10.97;72.61;100809.75;18629355;31;20106;-64
2022/05/11 02:40:36;;;;;;;7.10;3.42;;;;;;;10.10;75.06;100814.53;18629214;31;20106;-64
2022/05/11 02:50:42;;;;;;;8.35;3.33;;;;;;;10.30;75.04;100806.84;18628859;31;20096;-64
2022/05/11 03:00:47;;;;;;;6.25;3.42;;;;;;;10.30;74.91;100801.62;18628479;31;20143;-64
2022/05/11 03:10:52;;;;;;;7.40;2.97;;;;;;;10.26;74.97;100797.25;18628093;31;20428;-63
2022/05/11 03:20:56;;;;;;;7.05;3.25;;;;;;;9.83;75.40;100806.53;18626893;31;20153;-64
2022/05/11 03:31:01;;;;;;;5.85;3.40;;;;;;;10.02;75.48;100808.44;18628830;31;20110;-64
2022/05/11 03:41:04;;;;;;;5.72;3.28;;;;;;;10.60;73.66;100828.75;18627446;31;20375;-64
2022/05/11 03:51:10;;;;;;;8.85;3.95;;;;;;;10.19;75.07;100837.22;18627322;31;20107;-64
2022/05/11 04:01:14;;;;;;;6.43;3.50;;;;;;;9.95;77.22;100836.16;18626730;31;20156;-64
2022/05/11 04:11:19;;;;;;;9.43;3.75;;;;;;;10.79;74.22;100837.56;18611887;31;20113;-64
2022/05/11 04:21:22;;;;;;;9.15;3.72;;;;;;;11.15;76.61;100834.19;18611597;31;20150;-64
2022/05/11 04:31:26;;;;;;;9.75;4.35;;;;;;;11.76;74.60;100842.97;18625506;31;20096;-64
2022/05/11 04:41:30;;;;;;;8.15;4.10;;;;;;;12.04;74.74;100850.84;18625292;31;20096;-64
2022/05/11 04:51:34;;;;;;;8.30;4.12;;;;;;;13.11;71.80;100840.00;18624554;31;20114;-64
2022/05/11 05:01:37;;;;;;;5.78;3.17;;;;;;;14.30;68.23;100845.22;18621462;31;20092;-65
2022/05/11 05:11:42;;;;;;;7.22;3.42;;;;;;;15.18;65.51;100839.81;18565582;31;20093;-64
2022/05/11 05:21:45;;;;;;;7.10;3.33;;;;;;;15.51;64.84;100842.81;18542469;32;20326;-64
2022/05/11 05:31:50;;;;;;;7.00;3.50;;;;;;;15.67;63.51;100852.19;18553572;31;20385;-65
2022/05/11 05:41:53;;;;;;;6.82;3.15;;;;;;;16.01;63.47;100848.16;18556449;32;20451;-64
2022/05/11 05:51:58;;;;;;;7.12;3.33;;;;;;;15.92;63.24;100848.31;18565201;32;20486;-65
2022/05/11 06:02:01;;;;;;;6.70;3.08;;;;;;;16.47;62.62;100848.19;18561529;31;20100;-65
2022/05/11 06:12:07;;;;;;;7.05;3.28;;;;;;;18.15;57.46;100839.09;18560707;31;20096;-65
2022/05/11 06:22:10;;;;;;;6.37;3.28;;;;;;;18.64;57.17;100838.66;18558603;31;20119;-65
2022/05/11 06:32:18;;;;;;;6.97;3.22;;;;;;;18.64;58.52;100846.56;18560084;31;20111;-65
2022/05/11 06:42:22;;;;;;;5.50;3.00;;;;;;;19.11;55.40;100835.53;18560229;31;20104;-65
2022/05/11 06:52:27;;;;;;;4.93;2.80;;;;;;;20.24;52.23;100844.22;18561594;32;20097;-65
2022/05/11 07:02:30;;;;;;;8.15;3.33;;;;;;;20.31;52.64;100843.06;18569222;31;20111;-66
2022/05/11 07:12:38;;;;;;;7.93;3.70;;;;;;;21.13;49.79;100830.34;18572640;31;20115;-65
2022/05/11 07:22:41;;;;;;;6.30;2.65;;;;;;;23.21;44.61;100816.00;18622051;31;20091;-65
2022/05/11 07:32:45;;;;;;;6.97;2.60;;;;;;;24.84;41.45;100816.56;18625658;31;20379;-66
2022/05/11 07:42:48;;;;;;;4.62;2.15;;;;;;;27.66;34.60;100805.69;18600573;31;447567;-66
2022/05/11 07:52:54;;;;;;;7.62;2.47;;;;;;;27.50;36.35;100801.31;18626123;31;20114;-66
2022/05/11 08:02:57;;;;;;;4.87;2.30;;;;;;;27.22;37.65;100797.84;18623185;31;20141;-66
2022/05/11 08:13:05;;;;;;;6.32;2.25;;;;;;;26.11;39.22;100795.88;18624652;31;20143;-66
2022/05/11 08:23:09;;;;;;;4.07;1.98;;;;;;;26.69;36.05;100790.50;18621058;31;20088;-66
2022/05/11 08:33:22;;;;;;;4.53;1.90;;;;;;;27.36;34.16;100782.66;18623743;31;20084;-66
2022/05/11 08:43:47;;;;;;;4.03;2.08;;;;;;;27.15;34.44;100775.09;18625434;31;20396;-66
2022/05/11 08:53:56;;;;;;;4.20;1.90;;;;;;;27.00;32.36;100763.56;18606227;31;20092;-66
2022/05/11 09:04:00;;;;;;;3.47;1.52;;;;;;;27.10;31.39;100759.31;18525927;32;20093;-67
2022/05/11 09:14:05;;;;;;;5.60;1.67;;;;;;;27.66;30.43;100762.78;18499783;32;20149;-67
2022/05/11 09:24:26;;;;;;;4.45;1.92;;;;;;;28.52;28.40;100755.00;18519412;31;20118;-67
2022/05/11 09:34:33;;;;;;;3.47;1.67;;;;;;;29.00;28.03;100747.97;18499472;32;20092;-67
2022/05/11 09:44:42;;;;;;;2.80;1.58;;;;;;;29.24;26.95;100755.19;18499926;32;20087;-67
2022/05/11 09:54:51;;;;;;;4.72;1.70;;;;;;;29.06;26.74;100742.16;18498904;32;20111;-67
2022/05/11 10:04:59;;;;;;;3.43;1.77;;;;;;;28.71;25.85;100746.47;18622378;31;20128;-67
2022/05/11 10:25:33;;;;;;;6.15;2.08;;;;;;;28.78;29.33;100742.34;18627297;31;20693;-67
2022/05/11 10:35:46;;;;;;;4.50;2.15;;;;;;;28.94;25.16;100735.87;18628047;31;20090;-66
2022/05/11 10:45:54;;;;;;;3.28;1.67;;;;;;;27.54;27.65;100749.25;18614438;31;20456;-66
2022/05/11 10:56:27;;;;;;;2.30;1.70;;;;;;;28.26;27.01;100738.94;18626993;31;20631;-66
2022/05/11 11:17:08;;;;;;;3.72;1.90;;;;;;;28.03;27.99;100736.06;18561861;31;20140;-67
2022/05/11 11:27:12;;;;;;;4.78;1.80;;;;;;;27.45;29.48;100724.87;18547126;31;20114;-66
2022/05/11 11:38:00;;;;;;;4.50;1.77;;;;;;;27.80;32.80;100717.09;18552179;31;20091;-66
2022/05/11 11:48:06;;;;;;;3.17;1.50;;;;;;;29.02;25.17;100689.59;18625604;31;20170;-66
2022/05/11 11:58:20;;;;;;;6.43;2.03;;;;;;;29.72;25.05;100679.75;18625082;31;20072;-66
2022/05/11 12:19:10;;;;;;;3.33;1.45;;;;;;;30.04;25.02;100660.16;18341605;32;20173;-66
2022/05/11 12:39:38;;;;;;;3.15;1.58;;;;;;;30.17;22.94;100652.00;18307648;32;20118;-66
2022/05/11 12:49:42;;;;;;;5.53;1.90;;;;;;;30.55;23.45;100638.19;18496762;31;20119;-66
2022/05/11 12:59:51;;;;;;;4.30;1.77;;;;;;;30.06;28.01;100626.91;18628323;31;20099;-66
2022/05/11 13:09:57;;;;;;;4.62;1.87;;;;;;;30.50;24.26;100611.62;18635206;31;20465;-67
2022/05/11 13:20:04;;;;;;;3.92;1.50;;;;;;;30.51;21.54;100607.94;18641709;31;20458;-66
2022/05/11 13:30:17;;;;;;;4.47;1.87;;;;;;;30.12;24.79;100604.91;18643627;31;20088;-66
2022/05/11 13:40:28;;;;;;;2.87;1.45;;;;;;;30.21;24.98;100592.50;18641281;31;20390;-66
2022/05/11 13:50:35;;;;;;;4.45;1.80;;;;;;;29.43;23.27;100567.25;18626647;31;20111;-67
2022/05/11 14:00:40;;;;;;;3.37;1.60;;;;;;;30.20;22.60;100564.75;18640827;31;20114;-66
2022/05/11 14:10:43;;;;;;;3.12;1.77;;;;;;;30.14;24.05;100560.72;18613741;31;20184;-66
2022/05/11 14:20:49;;;;;;;3.33;1.75;;;;;;;29.75;23.92;100547.69;18629518;31;20489;-66
2022/05/11 14:30:53;;;;;;;2.28;1.45;;;;;;;29.29;23.21;100543.31;18627247;31;20092;-66
2022/05/11 14:40:58;;;;;;;8.05;1.90;;;;;;;29.86;22.79;100540.56;18626596;31;20106;-66
2022/05/11 14:51:02;;;;;;;5.25;1.62;;;;;;;29.25;23.65;100526.56;18611334;31;20092;-66
2022/05/11 15:21:57;;;;;;;9.85;2.05;;;;;;;29.09;25.57;100518.87;18355745;32;20520;-67
2022/05/11 15:32:06;;;;;;;2.33;1.50;;;;;;;29.30;26.72;100519.00;18356714;32;20117;-66
2022/05/11 15:42:14;;;;;;;2.53;1.70;;;;;;;28.92;26.18;100504.91;18357584;32;20140;-66
2022/05/11 15:52:19;;;;;;;2.58;1.50;;;;;;;29.08;24.12;100499.22;18416549;31;20092;-66
2022/05/11 16:02:26;;;;;;;2.62;1.52;;;;;;;29.43;24.23;100500.03;18627323;31;20129;-66
2022/05/11 16:12:29;;;;;;;3.17;1.73;;;;;;;28.96;24.93;100491.25;18611481;31;20173;-66
2022/05/11 16:22:34;;;;;;;3.15;1.45;;;;;;;28.89;27.00;100489.06;18611108;31;20160;-66
2022/05/11 16:32:37;;;;;;;4.05;1.85;;;;;;;28.73;27.66;100489.38;18609666;31;20632;-67
2022/05/11 16:42:42;;;;;;;4.20;2.00;;;;;;;28.70;26.64;100494.13;18610382;31;20122;-66
2022/05/11 16:52:46;;;;;;;4.53;1.90;;;;;;;28.33;28.59;100487.91;18623803;31;20124;-66
2022/05/11 17:02:51;;;;;;;2.80;1.65;;;;;;;28.21;28.05;100483.50;18607910;31;20114;-67
2022/05/11 17:12:54;;;;;;;4.57;2.20;;;;;;;27.67;29.92;100493.69;18622499;31;20092;-66
2022/05/11 17:22:59;;;;;;;4.37;1.98;;;;;;;27.34;31.81;100484.41;18607663;31;20103;-67
2022/05/11 17:33:02;;;;;;;4.53;2.20;;;;;;;26.60;36.08;100492.09;18621265;31;20363;-66
2022/05/11 17:43:08;;;;;;;3.85;2.05;;;;;;;25.89;39.03;100496.81;18626593;31;20096;-66
2022/05/11 17:53:12;;;;;;;5.22;2.40;;;;;;;25.24;41.49;100495.56;18630097;31;20132;-66
2022/05/11 18:03:17;;;;;;;4.82;2.40;;;;;;;24.46;45.23;100505.56;18629299;31;20091;-66
2022/05/11 18:13:20;;;;;;;5.97;2.28;;;;;;;23.91;45.65;100510.44;18629189;31;20088;-66
2022/05/11 18:23:25;;;;;;;6.57;2.72;;;;;;;23.21;44.37;100511.53;18627543;31;20115;-66
2022/05/11 18:33:28;;;;;;;5.82;2.95;;;;;;;22.95;46.82;100522.63;18627650;31;20105;-66
2022/05/11 18:43:33;;;;;;;5.37;2.97;;;;;;;22.31;49.15;100535.59;18627864;31;20485;-66
2022/05/11 18:53:36;;;;;;;8.13;3.50;;;;;;;22.26;49.05;100549.09;18627854;31;20873;-66
2022/05/11 19:03:41;;;;;;;5.78;3.03;;;;;;;20.87;53.70;100557.16;18612739;31;20099;-66
2022/05/11 19:13:45;;;;;;;5.47;3.15;;;;;;;20.70;54.60;100567.59;18612747;31;20122;-66
2022/05/11 19:23:50;;;;;;;6.82;3.17;;;;;;;20.23;55.44;100574.78;18626964;31;20107;-66
2022/05/11 19:33:54;;;;;;;6.80;3.35;;;;;;;19.99;57.34;100581.91;18612486;31;20110;-66
2022/05/11 19:43:58;;;;;;;6.90;3.33;;;;;;;19.69;57.98;100581.22;18612672;31;20106;-66
2022/05/11 19:54:02;;;;;;;6.75;3.28;;;;;;;19.25;60.03;100586.34;18611066;31;20119;-66
2022/05/11 20:04:06;;;;;;;6.22;3.15;;;;;;;18.88;60.94;100599.03;18609614;31;20128;-66
2022/05/11 20:14:10;;;;;;;7.10;3.55;;;;;;;18.82;61.16;100592.16;18625037;31;20111;-66
2022/05/11 20:24:14;;;;;;;7.68;3.60;;;;;;;18.47;62.09;100588.03;18608934;31;20148;-67
2022/05/11 20:44:40;;;;;;;7.75;3.87;;;;;;;17.71;63.29;100597.31;18609739;31;20096;-66
2022/05/11 20:54:43;;;;;;;7.20;4.32;;;;;;;17.73;62.78;100591.97;18622969;31;20092;-66
2022/05/11 21:04:48;;;;;;;6.57;3.30;;;;;;;16.63;66.11;100599.22;18622278;31;20108;-66
2022/05/11 21:14:51;;;;;;;6.40;3.37;;;;;;;16.63;65.72;100598.38;18612473;31;20408;-68
2022/05/11 21:24:56;;;;;;;6.62;3.47;;;;;;;16.52;65.25;100610.94;18592631;31;20100;-66
2022/05/11 21:35:00;;;;;;;7.57;3.47;;;;;;;16.19;66.52;100615.16;18551419;32;20111;-66
2022/05/11 21:45:07;;;;;;;6.28;3.25;;;;;;;16.34;65.73;100607.84;18565926;32;20114;-66
2022/05/11 21:55:12;;;;;;;7.12;3.60;;;;;;;16.21;65.33;100610.72;18565379;32;20088;-67
2022/05/11 22:05:17;;;;;;;5.97;3.20;;;;;;;16.11;65.89;100608.34;18565326;32;20539;-66
2022/05/11 22:15:21;;;;;;;7.78;3.67;;;;;;;15.75;67.57;100604.66;18550575;32;20123;-67
2022/05/11 22:25:28;;;;;;;6.75;3.60;;;;;;;15.90;66.65;100605.25;18564168;32;20101;-67
2022/05/11 22:35:33;;;;;;;7.70;4.10;;;;;;;15.48;67.91;100611.34;18563934;32;20096;-67
2022/05/11 22:45:38;;;;;;;7.28;3.55;;;;;;;15.28;69.67;100620.47;18563854;32;20080;-67
2022/05/11 22:55:42;;;;;;;7.28;3.85;;;;;;;15.19;69.30;100616.25;18563403;32;20109;-66
2022/05/11 23:05:47;;;;;;;6.95;3.55;;;;;;;15.16;68.15;100611.03;18563377;32;20104;-67
2022/05/11 23:15:51;;;;;;;9.55;3.65;;;;;;;15.15;69.05;100605.81;18562945;32;20158;-66
2022/05/11 23:25:57;;;;;;;8.50;3.70;;;;;;;14.91;69.36;100610.59;18563098;32;20111;-66
2022/05/11 23:36:00;;;;;;;6.95;3.75;;;;;;;14.44;71.54;100600.81;18561407;32;20379;-66
2022/05/11 23:46:05;;;;;;;7.20;3.97;;;;;;;14.63;69.89;100597.88;18562398;32;20112;-66
2022/05/11 23:56:08;;;;;;;6.45;3.40;;;;;;;14.54;69.52;100591.88;18561694;32;20096;-66
